createdAt,value
2022-10-05T00:02:55.885Z,1.35
2022-10-05T00:05:58.455Z,1.70
2022-10-05T00:09:01.265Z,1.33
2022-10-05T00:12:20.532Z,1.20
2022-10-05T00:15:23.290Z,1.00
2022-10-05T00:18:27.009Z,1.20
2022-10-05T00:21:29.262Z,1.33
2022-10-05T00:24:31.533Z,1.13
2022-10-05T00:27:38.863Z,1.20
2022-10-05T00:30:41.167Z,0.80
2022-10-05T00:33:43.753Z,1.27
2022-10-05T00:36:46.361Z,1.83
2022-10-05T00:39:49.710Z,1.15
2022-10-05T00:42:59.785Z,1.03
2022-10-05T00:46:19.888Z,2.33
2022-10-05T00:49:59.530Z,1.30
2022-10-05T00:53:26.691Z,1.35
2022-10-05T00:56:56.879Z,1.38
2022-10-05T01:00:09.116Z,1.33
2022-10-05T01:03:36.909Z,1.30
2022-10-05T01:07:06.764Z,1.25
2022-10-05T01:10:27.999Z,1.63
2022-10-05T01:13:48.856Z,0.98
2022-10-05T01:17:00.084Z,1.17
2022-10-05T01:20:28.999Z,1.70
2022-10-05T01:23:34.333Z,1.52
2022-10-05T01:26:55.349Z,1.13
2022-10-05T01:30:11.255Z,1.55
2022-10-05T01:33:23.885Z,1.33
2022-10-05T01:37:01.660Z,1.63
2022-10-05T01:40:25.495Z,1.30
2022-10-05T01:43:31.860Z,1.33
2022-10-05T01:46:40.642Z,1.10
2022-10-05T01:49:55.244Z,1.97
2022-10-05T01:53:37.957Z,1.27
2022-10-05T01:56:53.112Z,1.40
2022-10-05T01:59:58.051Z,1.30
2022-10-05T02:03:04.875Z,1.17
2022-10-05T02:06:15.106Z,1.50
2022-10-05T02:09:32.211Z,1.50
2022-10-05T02:12:38.443Z,1.80
2022-10-05T02:15:53.217Z,0.93
2022-10-05T02:19:05.090Z,1.15
2022-10-05T02:22:28.875Z,1.13
2022-10-05T02:25:35.438Z,1.07
2022-10-05T02:28:55.547Z,1.05
2022-10-05T02:32:04.561Z,1.27
2022-10-05T02:35:15.744Z,0.90
2022-10-05T02:38:19.235Z,1.17
2022-10-05T02:41:44.422Z,1.67
2022-10-05T02:45:09.550Z,1.20
2022-10-05T02:48:26.558Z,1.15
2022-10-05T02:51:40.945Z,1.38
2022-10-05T02:54:46.106Z,1.33
2022-10-05T02:58:00.209Z,2.20
2022-10-05T03:01:16.166Z,1.90
2022-10-05T03:04:43.390Z,1.08
2022-10-05T03:07:46.476Z,1.30
2022-10-05T03:10:48.756Z,0.90
2022-10-05T03:14:03.239Z,0.60
2022-10-05T03:17:20.835Z,1.15
2022-10-05T03:20:39.561Z,1.50
2022-10-05T03:24:20.985Z,1.27
2022-10-05T03:27:33.771Z,1.17
2022-10-05T03:30:50.925Z,1.30
2022-10-05T03:34:00.657Z,1.10
2022-10-05T03:37:23.612Z,1.05
2022-10-05T03:40:44.477Z,0.88
2022-10-05T03:43:49.661Z,1.30
2022-10-05T03:47:13.786Z,1.53
2022-10-05T03:50:45.250Z,1.02
2022-10-05T03:54:04.010Z,1.45
2022-10-05T03:57:23.594Z,1.75
2022-10-05T04:00:30.145Z,1.00
2022-10-05T04:03:52.886Z,0.83
2022-10-05T04:06:57.813Z,1.15
2022-10-05T04:10:03.301Z,1.38
2022-10-05T04:13:39.922Z,1.77
2022-10-05T04:16:47.745Z,0.80
2022-10-05T04:20:04.538Z,1.43
2022-10-05T04:23:10.610Z,0.95
2022-10-05T04:26:20.343Z,0.80
2022-10-05T04:29:58.041Z,2.03
2022-10-05T04:33:16.101Z,1.20
2022-10-05T04:41:35.085Z,1.73
2022-10-05T04:45:01.852Z,1.08
2022-10-05T04:48:44.610Z,1.35
2022-10-05T04:52:19.506Z,1.00
2022-10-05T04:55:54.536Z,1.53
2022-10-05T04:59:09.510Z,1.55
2022-10-05T05:02:21.201Z,2.10
2022-10-05T05:06:16.300Z,1.73
2022-10-05T05:09:39.414Z,3.87
2022-10-05T05:12:50.576Z,2.53
2022-10-05T05:16:23.418Z,3.92
2022-10-05T05:19:37.610Z,3.15
2022-10-05T05:23:02.283Z,1.40
2022-10-05T05:27:00.432Z,1.90
2022-10-05T05:30:26.305Z,1.30
2022-10-05T05:33:49.235Z,1.33
2022-10-05T05:37:59.802Z,2.42
2022-10-05T05:41:05.691Z,2.88
2022-10-05T05:44:19.819Z,2.43
2022-10-05T05:52:40.519Z,1.35
2022-10-05T05:55:48.485Z,2.03
2022-10-05T05:59:13.957Z,4.75
2022-10-05T06:02:21.614Z,2.83
2022-10-05T06:05:27.402Z,5.13
2022-10-05T06:08:40.949Z,2.55
2022-10-05T06:12:13.895Z,2.65
2022-10-05T06:15:52.347Z,4.85
2022-10-05T06:19:36.111Z,3.37
2022-10-05T06:22:44.813Z,4.60
2022-10-05T06:26:38.323Z,2.65
2022-10-05T06:29:49.587Z,4.78
2022-10-05T06:33:03.815Z,2.50
2022-10-05T06:36:20.989Z,3.17
2022-10-05T06:39:41.758Z,4.60
2022-10-05T06:43:01.848Z,4.32
2022-10-05T06:46:59.723Z,4.55
2022-10-05T06:50:58.740Z,2.97
2022-10-05T06:54:34.407Z,1.60
2022-10-05T06:57:52.277Z,2.60
2022-10-05T07:01:20.830Z,3.75
2022-10-05T07:04:26.208Z,3.05
2022-10-05T07:07:51.430Z,3.83
2022-10-05T07:11:24.441Z,4.13
2022-10-05T07:14:33.730Z,2.37
2022-10-05T07:17:53.292Z,5.55
2022-10-05T07:21:14.148Z,4.70
2022-10-05T07:24:42.766Z,3.70
2022-10-05T07:28:13.210Z,4.23
2022-10-05T07:31:44.939Z,4.40
2022-10-05T07:34:55.773Z,4.28
2022-10-05T07:38:18.807Z,2.65
2022-10-05T07:41:30.248Z,2.92
2022-10-05T07:44:44.995Z,1.83
2022-10-05T07:48:12.683Z,7.60
2022-10-05T07:51:32.097Z,1.67
2022-10-05T07:54:57.363Z,4.50
2022-10-05T07:58:18.628Z,6.15
2022-10-05T08:01:38.493Z,2.57
2022-10-05T08:05:26.025Z,4.13
2022-10-05T08:09:04.816Z,3.70
2022-10-05T08:12:24.045Z,5.07
2022-10-05T08:15:31.875Z,5.07
2022-10-05T08:18:35.906Z,4.03
2022-10-05T08:21:51.711Z,4.10
2022-10-05T08:25:03.829Z,2.95
2022-10-05T08:32:58.322Z,4.45
2022-10-05T08:36:39.218Z,6.23
2022-10-05T08:40:06.792Z,4.33
2022-10-05T08:43:36.595Z,7.55
2022-10-05T08:47:16.905Z,5.03
2022-10-05T08:50:22.123Z,5.07
2022-10-05T08:53:42.503Z,5.33
2022-10-05T08:57:33.138Z,6.80
2022-10-05T09:01:15.199Z,6.97
2022-10-05T09:04:44.186Z,9.15
2022-10-05T09:08:20.548Z,7.93
2022-10-05T09:11:47.276Z,11.37
2022-10-05T09:15:26.002Z,12.67
2022-10-05T09:19:07.564Z,7.28
2022-10-05T09:23:19.143Z,7.72
2022-10-05T09:27:00.678Z,7.32
2022-10-05T09:30:27.072Z,6.83
2022-10-05T09:33:43.288Z,3.17
2022-10-05T09:36:48.179Z,4.55
2022-10-05T09:40:49.708Z,5.22
2022-10-05T09:44:05.410Z,4.78
2022-10-05T09:47:19.884Z,3.97
2022-10-05T09:50:56.053Z,6.13
2022-10-05T09:58:29.294Z,4.85
2022-10-05T10:01:51.830Z,11.77
2022-10-05T10:05:05.855Z,6.07
2022-10-05T10:09:04.719Z,8.93
2022-10-05T10:12:41.925Z,2.70
2022-10-05T10:21:03.329Z,5.93
2022-10-05T10:24:39.808Z,7.13
2022-10-05T10:32:15.331Z,6.82
2022-10-05T10:35:41.187Z,4.75
2022-10-05T10:39:22.514Z,11.10
2022-10-05T10:42:44.198Z,6.63
2022-10-05T10:45:56.327Z,6.13
2022-10-05T10:49:47.062Z,9.68
2022-10-05T10:53:13.968Z,7.18
2022-10-05T10:56:38.144Z,8.27
2022-10-05T10:59:58.042Z,8.03
2022-10-05T11:03:12.113Z,5.70
2022-10-05T11:06:36.493Z,6.30
2022-10-05T11:10:03.297Z,8.35
2022-10-05T11:13:20.541Z,7.65
2022-10-05T11:16:39.264Z,8.77
2022-10-05T11:20:15.429Z,8.10
2022-10-05T11:23:38.901Z,10.05
2022-10-05T11:31:12.019Z,8.15
2022-10-05T11:35:00.267Z,12.60
2022-10-05T11:38:11.248Z,7.10
2022-10-05T11:41:27.754Z,5.32
2022-10-05T11:45:08.690Z,5.40
2022-10-05T11:48:22.621Z,9.77
2022-10-05T11:51:39.753Z,3.37
2022-10-05T11:55:13.476Z,5.33
2022-10-05T11:58:41.256Z,4.18
2022-10-05T12:02:38.913Z,7.15
2022-10-05T12:06:27.108Z,6.20
2022-10-05T12:10:09.796Z,6.40
2022-10-05T12:13:58.510Z,6.13
2022-10-05T12:17:31.036Z,6.05
2022-10-05T12:21:05.452Z,6.07
2022-10-05T12:24:36.292Z,6.65
2022-10-05T12:27:44.045Z,7.63
2022-10-05T12:31:12.207Z,4.57
2022-10-05T12:34:20.556Z,4.55
2022-10-05T12:37:37.965Z,3.58
2022-10-05T12:40:57.390Z,4.03
2022-10-05T12:44:20.806Z,6.37
2022-10-05T12:47:44.195Z,4.63
2022-10-05T12:50:51.321Z,6.35
2022-10-05T12:54:38.761Z,4.75
2022-10-05T12:57:53.073Z,4.40
2022-10-05T13:01:18.432Z,2.53
2022-10-05T13:04:49.244Z,7.00
2022-10-05T13:08:00.505Z,6.90
2022-10-05T13:11:16.940Z,8.63
2022-10-05T13:14:42.751Z,7.90
2022-10-05T13:18:13.886Z,7.33
2022-10-05T13:21:26.809Z,5.30
2022-10-05T13:24:46.983Z,5.05
2022-10-05T13:28:26.265Z,4.85
2022-10-05T13:31:54.313Z,7.40
2022-10-05T13:35:20.915Z,5.27
2022-10-05T13:38:36.487Z,5.83
2022-10-05T13:41:44.827Z,9.25
2022-10-05T13:45:00.329Z,4.15
2022-10-05T13:48:27.693Z,5.13
2022-10-05T13:51:41.656Z,9.30
2022-10-05T13:54:43.973Z,5.53
2022-10-05T13:58:05.747Z,6.68
2022-10-05T14:01:43.929Z,7.22
2022-10-05T14:04:58.397Z,3.70
2022-10-05T14:08:04.100Z,8.47
2022-10-05T14:11:31.316Z,11.03
2022-10-05T14:14:45.046Z,5.75
2022-10-05T14:17:47.299Z,7.88
2022-10-05T14:21:18.958Z,5.85
2022-10-05T14:24:45.168Z,5.37
2022-10-05T14:27:58.196Z,9.57
2022-10-05T14:31:12.798Z,5.45
2022-10-05T14:34:32.905Z,5.75
2022-10-05T14:37:53.773Z,5.45
2022-10-05T14:41:07.833Z,5.30
2022-10-05T14:44:13.124Z,10.33
2022-10-05T14:47:20.204Z,5.32
2022-10-05T14:50:31.447Z,5.85
2022-10-05T14:53:43.898Z,6.13
2022-10-05T14:56:53.212Z,5.83
2022-10-05T15:00:18.670Z,4.63
2022-10-05T15:03:40.680Z,3.92
2022-10-05T15:07:04.253Z,2.80
2022-10-05T15:10:19.200Z,4.60
2022-10-05T15:13:30.437Z,4.77
2022-10-05T15:16:40.579Z,2.80
2022-10-05T15:20:17.162Z,6.32
2022-10-05T15:23:27.147Z,4.95
2022-10-05T15:26:55.486Z,4.18
2022-10-05T15:30:00.639Z,6.13
2022-10-05T15:33:24.323Z,4.80
2022-10-05T15:36:35.538Z,4.75
2022-10-05T15:39:48.966Z,6.38
2022-10-05T15:42:56.024Z,3.72
2022-10-05T15:46:11.494Z,7.60
2022-10-05T15:49:47.522Z,3.80
2022-10-05T15:53:19.926Z,4.97
2022-10-05T15:56:35.241Z,5.95
2022-10-05T16:00:15.988Z,7.15
2022-10-05T16:03:56.946Z,7.00
2022-10-05T16:07:20.547Z,7.53
2022-10-05T16:10:24.183Z,5.68
2022-10-05T16:13:37.326Z,5.72
2022-10-05T16:17:19.661Z,4.45
2022-10-05T16:20:43.239Z,3.67
2022-10-05T16:23:48.209Z,4.13
2022-10-05T16:26:58.419Z,3.53
2022-10-05T16:30:06.078Z,3.40
2022-10-05T16:33:22.723Z,4.10
2022-10-05T16:36:31.869Z,2.77
2022-10-05T16:39:59.716Z,7.47
2022-10-05T16:43:09.773Z,2.17
2022-10-05T16:46:40.981Z,2.65
2022-10-05T16:50:01.362Z,2.88
2022-10-05T16:53:14.454Z,3.37
2022-10-05T16:56:25.348Z,4.10
2022-10-05T17:00:14.952Z,2.58
2022-10-05T17:03:34.169Z,3.03
2022-10-05T17:07:17.913Z,2.75
2022-10-05T17:10:28.741Z,3.43
2022-10-05T17:13:55.992Z,2.53
2022-10-05T17:17:30.698Z,2.85
2022-10-05T17:20:46.439Z,2.88
2022-10-05T17:24:02.185Z,2.63
2022-10-05T17:27:15.932Z,3.03
2022-10-05T17:30:21.819Z,2.33
2022-10-05T17:33:29.010Z,3.83
2022-10-05T17:36:41.617Z,2.75
2022-10-05T17:39:55.492Z,2.33
2022-10-05T17:43:04.807Z,3.93
2022-10-05T17:46:09.895Z,4.53
2022-10-05T17:50:13.908Z,2.70
2022-10-05T17:53:41.201Z,3.65
2022-10-05T17:56:49.481Z,2.08
2022-10-05T17:59:57.423Z,3.37
2022-10-05T18:03:00.073Z,3.60
2022-10-05T18:06:29.739Z,2.83
2022-10-05T18:09:37.637Z,2.38
2022-10-05T18:13:27.596Z,3.28
2022-10-05T18:16:59.770Z,3.53
2022-10-05T18:20:23.913Z,2.90
2022-10-05T18:23:30.119Z,2.95
2022-10-05T18:26:59.548Z,2.90
2022-10-05T18:30:25.960Z,4.05
2022-10-05T18:33:38.955Z,1.83
2022-10-05T18:37:08.054Z,2.70
2022-10-05T18:40:28.189Z,2.15
2022-10-05T18:43:56.924Z,2.67
2022-10-05T18:47:45.957Z,2.38
2022-10-05T18:51:18.657Z,1.70
2022-10-05T18:54:28.131Z,2.30
2022-10-05T18:57:40.977Z,1.75
2022-10-05T19:01:13.385Z,1.85
2022-10-05T19:04:40.588Z,2.90
2022-10-05T19:07:59.350Z,1.90
2022-10-05T19:11:27.947Z,2.10
2022-10-05T19:14:54.988Z,2.63
2022-10-05T19:18:18.615Z,2.40
2022-10-05T19:21:33.073Z,2.58
2022-10-05T19:24:57.419Z,2.37
2022-10-05T19:28:23.592Z,2.93
2022-10-05T19:31:35.062Z,4.05
2022-10-05T19:35:11.415Z,2.28
2022-10-05T19:38:29.296Z,2.25
2022-10-05T19:42:16.341Z,1.73
2022-10-05T19:45:24.420Z,1.43
2022-10-05T19:48:48.555Z,1.80
2022-10-05T19:51:51.445Z,1.50
2022-10-05T19:55:24.312Z,3.22
2022-10-05T19:58:29.147Z,2.07
2022-10-05T20:01:36.880Z,2.27
2022-10-05T20:04:43.258Z,2.28
2022-10-05T20:07:45.595Z,2.60
2022-10-05T20:11:22.654Z,3.42
2022-10-05T20:14:33.202Z,2.90
2022-10-05T20:17:53.919Z,2.00
2022-10-05T20:20:56.626Z,2.17
2022-10-05T20:24:14.129Z,2.33
2022-10-05T20:27:36.160Z,2.00
2022-10-05T20:30:38.332Z,1.63
2022-10-05T20:33:40.603Z,2.17
2022-10-05T20:36:44.528Z,2.33
2022-10-05T20:39:47.974Z,2.20
2022-10-05T20:42:51.628Z,2.10
2022-10-05T20:45:53.877Z,1.90
2022-10-05T20:48:56.112Z,1.70
2022-10-05T20:51:59.003Z,2.38
2022-10-05T20:55:01.812Z,2.33
2022-10-05T20:58:04.107Z,1.70
2022-10-05T21:01:15.388Z,2.07
2022-10-05T21:04:26.435Z,2.17
2022-10-05T21:07:28.759Z,2.22
2022-10-05T21:10:30.987Z,2.22
2022-10-05T21:13:33.160Z,2.22
2022-10-05T21:16:38.338Z,1.53
2022-10-05T21:19:40.752Z,1.80
2022-10-05T21:22:43.023Z,2.33
2022-10-05T21:25:45.504Z,1.67
2022-10-05T21:28:47.792Z,1.73
2022-10-05T21:31:50.168Z,1.93
2022-10-05T21:34:52.469Z,2.37
2022-10-05T21:37:54.726Z,2.30
2022-10-05T21:40:57.121Z,1.85
2022-10-05T21:43:59.363Z,2.53
2022-10-05T21:47:01.935Z,2.33
2022-10-05T21:50:05.250Z,2.20
2022-10-05T21:53:10.300Z,2.42
2022-10-05T21:56:17.112Z,1.60
2022-10-05T21:59:26.197Z,2.08
2022-10-05T22:02:28.556Z,2.40
2022-10-05T22:05:30.788Z,2.37
2022-10-05T22:08:34.115Z,2.30
2022-10-05T22:11:36.592Z,2.28
2022-10-05T22:14:38.778Z,2.58
2022-10-05T22:17:41.854Z,2.37
2022-10-05T22:20:45.278Z,1.70
2022-10-05T22:23:47.865Z,2.20
2022-10-05T22:26:51.578Z,2.35
2022-10-05T22:29:55.517Z,2.17
2022-10-05T22:32:57.739Z,1.67
2022-10-05T22:36:00.332Z,1.83
2022-10-05T22:39:03.158Z,1.70
2022-10-05T22:42:05.863Z,2.47
2022-10-05T22:45:08.949Z,1.65
2022-10-05T22:48:11.251Z,2.30
2022-10-05T22:51:13.492Z,1.83
2022-10-05T22:54:15.836Z,1.92
2022-10-05T22:57:18.212Z,1.73
2022-10-05T23:00:35.244Z,2.20
2022-10-05T23:03:43.971Z,2.03
2022-10-05T23:06:46.158Z,1.57
2022-10-05T23:09:48.398Z,2.17
2022-10-05T23:13:00.602Z,2.53
2022-10-05T23:16:11.455Z,2.72
2022-10-05T23:19:13.870Z,1.90
2022-10-05T23:22:16.142Z,2.30
2022-10-05T23:25:18.573Z,2.22
2022-10-05T23:28:20.919Z,2.22
2022-10-05T23:31:26.362Z,1.95
2022-10-05T23:34:28.556Z,2.30
2022-10-05T23:37:31.034Z,2.20
2022-10-05T23:40:33.361Z,2.30
2022-10-05T23:43:36.817Z,2.50
2022-10-05T23:46:39.005Z,2.15
2022-10-05T23:49:41.192Z,2.53
2022-10-05T23:52:43.394Z,2.67
2022-10-05T23:55:45.890Z,1.85
2022-10-05T23:58:48.083Z,2.08
